Colfax, WA

1:40 AM PDT on April 02, 2015 (GMT -0700)
Barclay Ridge | | Change Station
CLOSE
Current Station
Personal Weather Station
Location: Pullman, WA
Elevation: 2644 ft
Nearby Weather Stations

Elev 2644 ft 46.73 °N, 117.21 °W | Updated 9 minutes ago

Partly Cloudy
Partly Cloudy
33.6 °F
Feels Like 31 °F
N
3.2
Wind Variable Wind from SSW

Today
High -- | Low -- °F
--% Chance of Precip.
Yesterday
High -- | Low -- °F
Precip. -- in
6:27 AM 7:19 PM
Waxing Gibbous, 96% visible
Pressure 30.21 in
Visibility 10.0 miles
Clouds Clear
Windchill 31 °F
Dew Point 33 °F
Humidity 96%
Rainfall 0.00 in
Snow Depth Not available.
UV 0 out of 12
Pollen 8.90 out of 12
Air Quality Not available.
Flu Activity Not available.
METAR KPUW 020753Z AUTO 06003KT 10SM CLR 01/M01 A3016 RMK AO2 SLP229 T00061006 400890006

More Conditions Fewer Conditions

Pressure 30.21 in
Visibility 10.0 miles
Clouds Clear
Windchill 31 °F
Dew Point 33 °F
Humidity 96%
Rainfall 0.00 in
Snow Depth Not available.
UV 0 out of 12
Pollen 8.90 out of 12
Air Quality Not available.
Flu Activity Not available.
METAR KPUW 020753Z AUTO 06003KT 10SM CLR 01/M01 A3016 RMK AO2 SLP229 T00061006 400890006

More Conditions Fewer Conditions

10-Day Weather Forecast

Almanac

Astronomy

Apr. 02, 2015 Rise Set
Actual Time
Civil Twilight
Nautical Twilight
Astronomical Twilight
Moon
Length of Visible Light
Length of Day
Tomorrow will be .
, % of the Moon is Illuminated

Today's Extremes

State Highs State Lows

Community

WunderPhotos

Upload Photos

1,810,207 photos uploaded!

WunderBlogs® & News

Nearby

Air Quality

  Air Quality AQ Index Pollutant
Not available.

Snow Depth

Station Depth Elevation

Earthquake Activity

City Distance Mag. Time & Date
Minimum magnitude displayed is 2.5.

Coastal Water Temperatures

Place Temperature

Stations

Nearby Weather Stations

Station Location Temp. Windchill Dew Point Humidity Wind Precip. Elev Updated Type